createdAt,value
2016-08-14T00:00:32.218Z,61.53
2016-08-14T00:01:15.218Z,61.65
2016-08-14T00:02:33.763Z,61.70
2016-08-14T00:03:39.375Z,61.70
2016-08-14T00:04:38.939Z,61.77
2016-08-14T00:05:14.832Z,61.81
2016-08-14T00:06:15.899Z,61.76
2016-08-14T00:07:40.957Z,61.79
2016-08-14T00:08:30.715Z,61.87
2016-08-14T00:09:37.629Z,61.90
2016-08-14T00:10:12.622Z,61.69
2016-08-14T00:11:19.490Z,61.33
2016-08-14T00:12:39.347Z,61.68
2016-08-14T00:13:48.568Z,61.76
2016-08-14T00:15:16.040Z,61.82
2016-08-14T00:16:18.402Z,61.84
2016-08-14T00:17:21.702Z,61.84
2016-08-14T00:18:32.665Z,61.79
2016-08-14T00:19:37.215Z,61.82
2016-08-14T00:20:13.956Z,61.82
2016-08-14T00:21:26.111Z,61.84
2016-08-14T00:22:42.610Z,61.86
2016-08-14T00:23:38.068Z,61.87
2016-08-14T00:24:44.907Z,61.87
2016-08-14T00:25:16.319Z,61.84
2016-08-14T00:26:27.796Z,61.82
2016-08-14T00:27:34.520Z,61.86
2016-08-14T00:28:36.176Z,60.88
2016-08-14T00:29:25.872Z,60.92
2016-08-14T00:30:14.386Z,61.50
2016-08-14T00:31:13.647Z,61.65
2016-08-14T00:32:32.069Z,61.77
2016-08-14T00:33:39.942Z,61.77
2016-08-14T00:34:32.066Z,61.77
2016-08-14T00:35:17.037Z,60.79
2016-08-14T00:36:17.346Z,60.54
2016-08-14T00:37:26.474Z,60.46
2016-08-14T00:38:34.613Z,60.66
2016-08-14T00:39:41.714Z,61.37
2016-08-14T00:40:13.642Z,61.57
2016-08-14T00:41:16.308Z,61.66
2016-08-14T00:42:37.487Z,61.75
2016-08-14T00:43:37.621Z,61.82
2016-08-14T00:44:33.086Z,61.83
2016-08-14T00:45:12.909Z,61.77
2016-08-14T00:46:16.193Z,61.81
2016-08-14T00:47:38.628Z,61.76
2016-08-14T00:48:38.549Z,61.79
2016-08-14T00:49:27.669Z,61.83
2016-08-14T00:50:14.007Z,61.80
2016-08-14T00:51:14.999Z,61.87
2016-08-14T00:52:47.232Z,61.78
2016-08-14T00:53:34.015Z,61.79
2016-08-14T00:54:42.631Z,61.82
2016-08-14T00:55:31.093Z,61.85
2016-08-14T00:56:16.409Z,61.83
2016-08-14T00:57:29.450Z,61.84
2016-08-14T00:58:44.400Z,61.88
2016-08-14T00:59:42.080Z,61.82
2016-08-14T01:00:18.448Z,61.88
2016-08-14T01:01:17.470Z,61.82
2016-08-14T01:02:39.353Z,61.83
2016-08-14T01:03:32.240Z,61.84
2016-08-14T01:04:29.790Z,61.86
2016-08-14T01:05:15.981Z,61.79
2016-08-14T01:06:15.156Z,61.78
2016-08-14T01:07:37.493Z,61.79
2016-08-14T01:08:32.395Z,61.79
2016-08-14T01:09:35.765Z,61.76
2016-08-14T01:10:14.020Z,61.80
2016-08-14T01:11:25.744Z,61.84
2016-08-14T01:12:52.916Z,61.88
2016-08-14T01:13:32.686Z,61.80
2016-08-14T01:14:48.118Z,61.82
2016-08-14T01:15:13.699Z,61.79
2016-08-14T01:16:26.854Z,61.82
2016-08-14T01:17:43.573Z,61.80
2016-08-14T01:18:44.603Z,61.80
2016-08-14T01:19:32.160Z,61.82
2016-08-14T01:20:19.827Z,61.81
2016-08-14T01:21:18.614Z,61.79
2016-08-14T01:22:37.624Z,61.64
2016-08-14T01:23:37.065Z,60.79
2016-08-14T01:24:45.957Z,60.60
2016-08-14T01:25:19.216Z,60.45
2016-08-14T01:26:15.608Z,60.80
2016-08-14T01:27:41.238Z,61.44
2016-08-14T01:28:46.470Z,61.60
2016-08-14T01:29:39.108Z,61.67
2016-08-14T01:30:18.254Z,61.69
2016-08-14T01:31:24.098Z,61.76
2016-08-14T01:32:48.048Z,61.74
2016-08-14T01:33:38.199Z,61.75
2016-08-14T01:34:38.114Z,61.79
2016-08-14T01:35:19.278Z,61.80
2016-08-14T01:36:15.538Z,61.80
2016-08-14T01:37:39.262Z,61.80
2016-08-14T01:38:47.423Z,61.81
2016-08-14T01:39:33.781Z,61.81
2016-08-14T01:40:17.531Z,61.82
2016-08-14T01:41:15.501Z,61.81
2016-08-14T01:42:30.390Z,61.82
2016-08-14T01:43:36.988Z,61.83
2016-08-14T01:44:47.649Z,61.83
2016-08-14T01:45:13.124Z,61.84
2016-08-14T01:46:25.524Z,61.86
2016-08-14T01:47:37.387Z,61.84
2016-08-14T01:48:37.621Z,61.83
2016-08-14T01:49:40.297Z,61.84
2016-08-14T01:50:13.877Z,61.86
2016-08-14T01:51:17.932Z,61.85
2016-08-14T01:52:29.993Z,61.85
2016-08-14T01:53:36.079Z,61.87
2016-08-14T01:54:37.337Z,60.85
2016-08-14T01:55:14.984Z,60.61
2016-08-14T01:56:15.472Z,60.51
2016-08-14T01:57:32.098Z,60.45
2016-08-14T01:58:44.239Z,60.39
2016-08-14T01:59:36.015Z,60.46
2016-08-14T02:00:13.349Z,61.36
2016-08-14T02:01:28.758Z,61.59
2016-08-14T02:02:34.019Z,61.65
2016-08-14T02:03:36.925Z,61.69
2016-08-14T02:04:36.677Z,61.73
2016-08-14T02:05:22.422Z,61.80
2016-08-14T02:06:13.742Z,60.79
2016-08-14T02:07:48.580Z,60.56
2016-08-14T02:08:43.130Z,60.45
2016-08-14T02:09:42.473Z,60.42
2016-08-14T02:10:20.934Z,60.38
2016-08-14T02:11:15.155Z,60.36
2016-08-14T02:12:48.634Z,60.32
2016-08-14T02:13:34.922Z,60.32
2016-08-14T02:14:42.301Z,60.31
2016-08-14T02:15:15.142Z,60.58
2016-08-14T02:16:36.588Z,61.30
2016-08-14T02:17:38.938Z,61.52
2016-08-14T02:18:44.134Z,61.60
2016-08-14T02:19:37.488Z,61.67
2016-08-14T02:20:20.666Z,61.71
2016-08-14T02:21:21.860Z,61.73
2016-08-14T02:22:39.171Z,61.70
2016-08-14T02:23:48.969Z,61.75
2016-08-14T02:24:42.402Z,61.75
2016-08-14T02:25:14.301Z,61.76
2016-08-14T02:26:14.648Z,61.78
2016-08-14T02:27:38.357Z,61.76
2016-08-14T02:28:33.683Z,61.59
2016-08-14T02:29:34.949Z,60.78
2016-08-14T02:30:14.850Z,60.67
2016-08-14T02:31:31.841Z,60.48
2016-08-14T02:32:43.090Z,61.41
2016-08-14T02:33:38.775Z,61.59
2016-08-14T02:35:22.844Z,61.73
2016-08-14T02:36:16.698Z,61.76
2016-08-14T02:37:42.645Z,61.77
2016-08-14T02:38:37.651Z,61.79
2016-08-14T02:39:38.152Z,61.76
2016-08-14T02:40:19.861Z,60.91
2016-08-14T02:41:15.702Z,61.57
2016-08-14T02:42:27.059Z,60.98
2016-08-14T02:43:36.678Z,61.50
2016-08-14T02:44:45.055Z,61.47
2016-08-14T02:45:23.503Z,60.65
2016-08-14T02:46:15.127Z,60.54
2016-08-14T02:47:37.908Z,60.47
2016-08-14T02:48:34.956Z,60.40
2016-08-14T02:49:31.095Z,60.60
2016-08-14T02:50:23.008Z,61.33
2016-08-14T02:51:14.428Z,61.52
2016-08-14T02:52:42.390Z,61.62
2016-08-14T02:53:32.786Z,61.66
2016-08-14T02:54:36.679Z,61.68
2016-08-14T02:55:22.876Z,61.73
2016-08-14T02:56:23.397Z,61.72
2016-08-14T02:57:27.728Z,61.71
2016-08-14T02:58:33.672Z,61.73
2016-08-14T02:59:37.068Z,61.75
2016-08-14T03:00:32.365Z,61.74
2016-08-14T03:01:18.154Z,61.71
2016-08-14T03:02:36.411Z,61.75
2016-08-14T03:03:42.229Z,61.75
2016-08-14T03:04:36.857Z,61.76
2016-08-14T03:05:20.658Z,61.77
2016-08-14T03:06:17.884Z,61.78
2016-08-14T03:07:17.829Z,61.77
2016-08-14T03:08:33.886Z,61.78
2016-08-14T03:09:42.936Z,61.62
2016-08-14T03:10:26.069Z,60.78
2016-08-14T03:11:13.773Z,61.54
2016-08-14T03:12:14.859Z,61.62
2016-08-14T03:13:42.189Z,61.69
2016-08-14T03:14:31.759Z,61.57
2016-08-14T03:15:20.682Z,61.57
2016-08-14T03:16:26.045Z,60.72
2016-08-14T03:17:15.265Z,60.74
2016-08-14T03:18:39.420Z,61.45
2016-08-14T03:19:41.299Z,61.60
2016-08-14T03:20:21.202Z,61.68
2016-08-14T03:21:13.138Z,61.71
2016-08-14T03:22:37.391Z,61.73
2016-08-14T03:23:34.999Z,61.76
2016-08-14T03:24:37.139Z,61.76
2016-08-14T03:25:30.988Z,61.75
2016-08-14T03:26:16.822Z,61.76
2016-08-14T03:27:16.669Z,61.77
2016-08-14T03:28:37.439Z,61.74
2016-08-14T03:29:34.871Z,61.84
2016-08-14T03:30:22.989Z,60.90
2016-08-14T03:31:19.566Z,60.44
2016-08-14T03:32:14.787Z,60.72
2016-08-14T03:33:43.522Z,61.39
2016-08-14T03:34:36.613Z,61.54
2016-08-14T03:35:48.000Z,61.59
2016-08-14T03:36:13.805Z,61.66
2016-08-14T03:37:34.777Z,61.68
2016-08-14T03:38:34.863Z,61.72
2016-08-14T03:39:38.824Z,61.75
2016-08-14T03:41:13.370Z,61.74
2016-08-14T03:42:14.477Z,61.75
2016-08-14T03:43:38.850Z,61.75
2016-08-14T03:44:44.640Z,61.72
2016-08-14T03:45:26.397Z,61.76
2016-08-14T03:46:13.728Z,61.76
2016-08-14T03:47:18.050Z,61.78
2016-08-14T03:48:32.475Z,60.78
2016-08-14T03:49:42.007Z,60.96
2016-08-14T03:50:24.564Z,61.47
2016-08-14T03:51:22.254Z,61.61
2016-08-14T03:52:15.381Z,61.66
2016-08-14T03:53:33.618Z,61.70
2016-08-14T03:54:37.338Z,61.74
2016-08-14T03:55:30.631Z,61.75
2016-08-14T03:56:14.093Z,61.73
2016-08-14T03:57:16.215Z,61.76
2016-08-14T03:58:32.444Z,61.78
2016-08-14T03:59:36.372Z,61.77
2016-08-14T04:00:29.230Z,61.75
2016-08-14T04:01:27.968Z,61.79
2016-08-14T04:02:15.044Z,61.79
2016-08-14T04:03:32.066Z,61.88
2016-08-14T04:04:36.900Z,60.85
2016-08-14T04:05:20.191Z,61.54
2016-08-14T04:06:13.329Z,61.64
2016-08-14T04:07:34.393Z,61.71
2016-08-14T04:08:38.438Z,61.75
2016-08-14T04:09:34.383Z,61.75
2016-08-14T04:10:24.806Z,61.78
2016-08-14T04:11:14.907Z,61.80
2016-08-14T04:12:15.023Z,61.79
2016-08-14T04:13:48.047Z,61.79
2016-08-14T04:14:38.377Z,61.80
2016-08-14T04:15:19.983Z,61.79
2016-08-14T04:16:15.681Z,61.59
2016-08-14T04:17:16.661Z,61.13
2016-08-14T04:18:42.813Z,61.59
2016-08-14T04:19:37.819Z,61.69
2016-08-14T04:20:32.702Z,61.74
2016-08-14T04:21:37.925Z,61.75
2016-08-14T04:22:40.324Z,61.81
2016-08-14T04:23:37.815Z,61.82
2016-08-14T04:24:39.599Z,61.81
2016-08-14T04:25:26.642Z,61.82
2016-08-14T04:26:13.621Z,61.83
2016-08-14T04:27:41.377Z,61.83
2016-08-14T04:28:44.164Z,61.82
2016-08-14T04:29:36.205Z,61.81
2016-08-14T04:30:31.585Z,61.82
2016-08-14T04:31:14.687Z,61.80
2016-08-14T04:32:33.200Z,61.81
2016-08-14T04:33:40.775Z,61.82
2016-08-14T04:35:26.536Z,61.84
2016-08-14T04:36:13.364Z,61.84
2016-08-14T04:37:15.020Z,61.85
2016-08-14T04:38:33.466Z,61.85
2016-08-14T04:39:38.551Z,60.91
2016-08-14T04:40:22.525Z,60.63
2016-08-14T04:41:12.327Z,60.53
2016-08-14T04:42:30.944Z,60.47
2016-08-14T04:43:33.923Z,60.41
2016-08-14T04:44:44.068Z,60.36
2016-08-14T04:45:26.993Z,60.37
2016-08-14T04:46:14.744Z,60.35
2016-08-14T04:47:15.741Z,60.34
2016-08-14T04:48:58.391Z,60.33
2016-08-14T04:49:42.315Z,60.35
2016-08-14T04:50:22.694Z,60.35
2016-08-14T04:51:17.168Z,60.33
2016-08-14T04:52:33.192Z,60.29
2016-08-14T04:53:38.195Z,60.41
2016-08-14T04:54:38.593Z,61.30
2016-08-14T04:55:34.044Z,61.51
2016-08-14T04:56:13.705Z,61.61
2016-08-14T04:57:14.693Z,61.69
2016-08-14T04:58:42.660Z,61.73
2016-08-14T04:59:34.949Z,61.76
2016-08-14T05:00:35.769Z,61.79
2016-08-14T05:01:15.198Z,61.78
2016-08-14T05:02:18.289Z,61.80
2016-08-14T05:03:31.285Z,61.80
2016-08-14T05:04:37.276Z,61.81
2016-08-14T05:05:23.419Z,61.79
2016-08-14T05:06:13.441Z,61.61
2016-08-14T05:07:15.633Z,60.79
2016-08-14T05:08:32.960Z,60.98
2016-08-14T05:09:29.340Z,61.51
2016-08-14T05:10:26.813Z,61.66
2016-08-14T05:11:16.161Z,61.73
2016-08-14T05:12:25.272Z,61.77
2016-08-14T05:13:42.339Z,61.77
2016-08-14T05:14:42.924Z,61.80
2016-08-14T05:15:25.200Z,61.81
2016-08-14T05:16:12.910Z,61.83
2016-08-14T05:17:14.926Z,61.81
2016-08-14T05:18:45.093Z,61.80
2016-08-14T05:19:44.075Z,61.81
2016-08-14T05:20:33.633Z,61.81
2016-08-14T05:21:27.156Z,61.80
2016-08-14T05:22:14.491Z,61.81
2016-08-14T05:23:43.696Z,61.79
2016-08-14T05:24:34.291Z,61.80
2016-08-14T05:25:29.582Z,61.79
2016-08-14T05:26:13.278Z,61.80
2016-08-14T05:27:14.338Z,61.80
2016-08-14T05:28:43.499Z,61.79
2016-08-14T05:29:43.955Z,61.80
2016-08-14T05:30:24.178Z,60.78
2016-08-14T05:31:14.173Z,60.95
2016-08-14T05:32:14.751Z,61.46
2016-08-14T05:33:36.054Z,61.62
2016-08-14T05:34:42.772Z,61.68
2016-08-14T05:35:25.449Z,61.70
2016-08-14T05:36:14.837Z,61.72
2016-08-14T05:37:15.779Z,60.97
2016-08-14T05:38:33.156Z,61.51
2016-08-14T05:39:44.250Z,61.62
2016-08-14T05:40:26.257Z,61.68
2016-08-14T05:41:14.507Z,61.69
2016-08-14T05:42:14.125Z,61.70
2016-08-14T05:43:33.265Z,61.70
2016-08-14T05:44:27.103Z,61.71
2016-08-14T05:45:25.364Z,61.71
2016-08-14T05:46:14.191Z,61.70
2016-08-14T05:47:20.920Z,61.72
2016-08-14T05:48:36.014Z,61.70
2016-08-14T05:49:44.579Z,61.72
2016-08-14T05:50:24.330Z,61.70
2016-08-14T05:51:13.370Z,61.70
2016-08-14T05:52:14.782Z,61.52
2016-08-14T05:53:44.486Z,60.67
2016-08-14T05:54:38.779Z,60.49
2016-08-14T05:55:24.948Z,60.58
2016-08-14T05:56:13.607Z,61.29
2016-08-14T05:57:12.706Z,61.51
2016-08-14T05:58:44.093Z,61.60
2016-08-14T05:59:34.367Z,61.65
2016-08-14T06:00:29.918Z,61.67
2016-08-14T06:01:16.572Z,61.69
2016-08-14T06:02:20.342Z,61.70
2016-08-14T06:03:32.366Z,61.71
2016-08-14T06:04:47.070Z,61.70
2016-08-14T06:05:24.402Z,61.72
2016-08-14T06:06:15.465Z,61.73
2016-08-14T06:07:15.700Z,61.71
2016-08-14T06:08:47.611Z,61.73
2016-08-14T06:09:29.820Z,61.73
2016-08-14T06:10:26.242Z,61.74
2016-08-14T06:11:13.150Z,61.73
2016-08-14T06:12:16.475Z,61.71
2016-08-14T06:13:43.316Z,61.73
2016-08-14T06:14:38.627Z,61.73
2016-08-14T06:15:26.782Z,61.70
2016-08-14T06:16:15.176Z,61.73
2016-08-14T06:17:16.405Z,61.70
2016-08-14T06:18:41.772Z,61.72
2016-08-14T06:19:31.965Z,61.72
2016-08-14T06:20:26.870Z,61.62
2016-08-14T06:21:13.773Z,60.60
2016-08-14T06:22:14.881Z,60.55
2016-08-14T06:23:39.064Z,60.38
2016-08-14T06:24:33.347Z,60.32
2016-08-14T06:25:25.204Z,60.29
2016-08-14T06:26:12.105Z,60.24
2016-08-14T06:27:17.845Z,60.25
2016-08-14T06:28:43.292Z,60.23
2016-08-14T06:29:38.115Z,60.22
2016-08-14T06:30:24.273Z,60.20
2016-08-14T06:31:12.804Z,60.20
2016-08-14T06:32:21.961Z,60.19
2016-08-14T06:33:39.141Z,60.18
2016-08-14T06:34:38.056Z,60.17
2016-08-14T06:35:27.889Z,60.18
2016-08-14T06:36:14.648Z,60.17
2016-08-14T06:37:17.233Z,60.15
2016-08-14T06:38:37.405Z,60.18
2016-08-14T06:39:36.970Z,60.17
2016-08-14T06:40:26.033Z,60.15
2016-08-14T06:41:13.927Z,60.16
2016-08-14T06:42:15.458Z,60.17
2016-08-14T06:43:46.160Z,61.12
2016-08-14T06:44:24.250Z,61.34
2016-08-14T06:45:24.260Z,61.47
2016-08-14T06:46:16.008Z,61.52
2016-08-14T06:47:15.272Z,61.56
2016-08-14T06:48:37.302Z,61.58
2016-08-14T06:49:32.190Z,61.59
2016-08-14T06:50:26.918Z,61.59
2016-08-14T06:51:14.755Z,61.58
2016-08-14T06:52:23.759Z,61.60
2016-08-14T06:53:37.743Z,61.61
2016-08-14T06:54:48.934Z,61.61
2016-08-14T06:55:24.872Z,61.59
2016-08-14T06:56:13.587Z,61.60
2016-08-14T06:57:16.033Z,61.62
2016-08-14T06:58:39.265Z,61.62
2016-08-14T06:59:32.215Z,61.46
2016-08-14T07:00:26.374Z,60.63
2016-08-14T07:01:16.132Z,60.42
2016-08-14T07:02:37.935Z,60.36
2016-08-14T07:03:41.584Z,60.25
2016-08-14T07:04:35.253Z,60.18
2016-08-14T07:05:27.049Z,60.20
2016-08-14T07:06:15.968Z,60.17
2016-08-14T07:07:15.280Z,60.38
2016-08-14T07:08:35.659Z,61.13
2016-08-14T07:09:38.382Z,61.32
2016-08-14T07:10:29.316Z,61.43
2016-08-14T07:11:13.296Z,61.50
2016-08-14T07:12:18.063Z,61.54
2016-08-14T07:13:31.248Z,61.54
2016-08-14T07:14:30.564Z,61.59
2016-08-14T07:15:25.039Z,61.60
2016-08-14T07:16:13.736Z,61.59
2016-08-14T07:17:22.262Z,61.59
2016-08-14T07:18:37.632Z,61.58
2016-08-14T07:19:38.141Z,61.60
2016-08-14T07:20:35.599Z,61.62
2016-08-14T07:21:20.747Z,61.60
2016-08-14T07:22:27.613Z,61.63
2016-08-14T07:23:31.323Z,61.60
2016-08-14T07:24:39.316Z,61.60
2016-08-14T07:25:37.473Z,61.64
2016-08-14T07:26:22.324Z,61.63
2016-08-14T07:27:44.755Z,61.69
2016-08-14T07:28:43.102Z,60.64
2016-08-14T07:29:31.482Z,61.39
2016-08-14T07:30:27.755Z,61.51
2016-08-14T07:31:20.908Z,61.57
2016-08-14T07:32:27.073Z,61.59
2016-08-14T07:33:36.798Z,61.59
2016-08-14T07:34:36.733Z,61.61
2016-08-14T07:35:35.228Z,61.60
2016-08-14T07:36:14.395Z,61.60
2016-08-14T07:37:24.664Z,61.60
2016-08-14T07:38:50.054Z,61.61
2016-08-14T07:39:43.147Z,61.62
2016-08-14T07:40:27.177Z,61.61
2016-08-14T07:41:23.031Z,61.64
2016-08-14T07:42:26.456Z,61.62
2016-08-14T07:43:44.402Z,61.59
2016-08-14T07:44:38.390Z,61.62
2016-08-14T07:45:15.461Z,61.60
2016-08-14T07:46:19.889Z,61.61
2016-08-14T07:47:27.719Z,61.61
2016-08-14T07:48:33.556Z,61.59
2016-08-14T07:49:34.839Z,61.60
2016-08-14T07:50:26.790Z,61.58
2016-08-14T07:51:17.217Z,61.60
2016-08-14T07:52:33.725Z,61.60
2016-08-14T07:53:33.604Z,61.59
2016-08-14T07:54:43.407Z,61.57
2016-08-14T07:55:37.036Z,61.60
2016-08-14T07:56:20.770Z,61.60
2016-08-14T07:57:28.386Z,61.56
2016-08-14T07:58:41.562Z,61.40
2016-08-14T07:59:34.316Z,60.56
2016-08-14T08:00:26.483Z,60.38
2016-08-14T08:01:22.422Z,60.28
2016-08-14T08:02:21.309Z,60.20
2016-08-14T08:03:38.157Z,61.13
2016-08-14T08:04:42.952Z,61.33
2016-08-14T08:05:30.870Z,61.40
2016-08-14T08:06:14.504Z,61.48
2016-08-14T08:07:30.367Z,61.52
2016-08-14T08:08:35.354Z,61.49
2016-08-14T08:09:41.648Z,61.52
2016-08-14T08:10:36.543Z,61.53
2016-08-14T08:11:25.102Z,61.56
2016-08-14T08:12:21.723Z,61.55
2016-08-14T08:13:15.071Z,61.54
2016-08-14T08:14:17.458Z,61.55
2016-08-14T08:15:21.682Z,61.54
2016-08-14T08:16:15.445Z,61.55
2016-08-14T08:17:16.236Z,61.55
2016-08-14T08:18:12.012Z,61.57
2016-08-14T08:19:16.226Z,61.58
2016-08-14T08:20:20.077Z,61.56
2016-08-14T08:21:19.415Z,61.57
2016-08-14T08:22:21.106Z,61.57
2016-08-14T08:23:17.494Z,61.56
2016-08-14T08:24:13.327Z,61.56
2016-08-14T08:25:16.436Z,61.41
2016-08-14T08:26:13.932Z,61.56
2016-08-14T08:27:13.959Z,61.57
2016-08-14T08:28:13.999Z,61.55
2016-08-14T08:29:13.271Z,61.56
2016-08-14T08:30:13.109Z,61.57
2016-08-14T08:31:15.962Z,61.58
2016-08-14T08:32:14.548Z,61.36
2016-08-14T08:33:15.435Z,60.81
2016-08-14T08:34:28.644Z,61.36
2016-08-14T08:35:16.437Z,61.48
2016-08-14T08:36:13.966Z,61.51
2016-08-14T08:37:13.902Z,61.52
2016-08-14T08:38:14.938Z,61.51
2016-08-14T08:39:12.837Z,61.55
2016-08-14T08:40:14.577Z,61.57
2016-08-14T08:41:21.662Z,61.58
2016-08-14T08:42:14.216Z,61.57
2016-08-14T08:43:13.909Z,61.57
2016-08-14T08:44:15.598Z,61.55
2016-08-14T08:45:15.934Z,61.58
2016-08-14T08:46:19.732Z,61.54
2016-08-14T08:47:20.818Z,61.57
2016-08-14T08:48:24.145Z,61.58
2016-08-14T08:49:14.147Z,61.57
2016-08-14T08:50:19.137Z,61.54
2016-08-14T08:51:13.346Z,61.53
2016-08-14T08:52:18.364Z,61.55
2016-08-14T08:53:15.533Z,61.59
2016-08-14T08:54:13.071Z,61.58
2016-08-14T08:55:20.769Z,60.55
2016-08-14T08:56:14.186Z,60.62
2016-08-14T08:57:13.400Z,61.21
2016-08-14T08:58:13.436Z,61.36
2016-08-14T08:59:16.537Z,61.41
2016-08-14T09:00:16.616Z,61.50
2016-08-14T09:01:12.809Z,61.48
2016-08-14T09:02:14.238Z,61.53
2016-08-14T09:03:21.064Z,61.51
2016-08-14T09:04:12.798Z,61.50
2016-08-14T09:05:15.313Z,61.52
2016-08-14T09:06:12.373Z,61.54
2016-08-14T09:07:16.625Z,61.51
2016-08-14T09:08:20.575Z,61.52
2016-08-14T09:09:14.858Z,61.50
2016-08-14T09:10:14.787Z,61.51
2016-08-14T09:11:15.585Z,61.29
2016-08-14T09:12:16.027Z,60.71
2016-08-14T09:13:12.993Z,61.23
2016-08-14T09:14:13.384Z,61.36
2016-08-14T09:15:13.752Z,61.43
2016-08-14T09:16:15.243Z,61.45
2016-08-14T09:17:13.600Z,61.44
2016-08-14T09:18:14.049Z,61.29
2016-08-14T09:19:13.802Z,60.50
2016-08-14T09:20:14.046Z,60.53
2016-08-14T09:21:13.599Z,61.15
2016-08-14T09:22:13.577Z,61.32
2016-08-14T09:23:16.966Z,61.35
2016-08-14T09:24:13.283Z,61.40
2016-08-14T09:25:13.163Z,61.44
2016-08-14T09:26:13.203Z,61.43
2016-08-14T09:27:14.088Z,61.46
2016-08-14T09:28:14.504Z,61.47
2016-08-14T09:29:26.897Z,61.45
2016-08-14T09:30:15.876Z,61.46
2016-08-14T09:31:20.927Z,61.44
2016-08-14T09:32:43.745Z,61.44
2016-08-14T09:33:43.097Z,61.46
2016-08-14T09:34:32.971Z,61.46
2016-08-14T09:35:44.163Z,61.43
2016-08-14T09:36:40.135Z,61.44
2016-08-14T09:37:44.919Z,61.42
2016-08-14T09:38:38.008Z,61.43
2016-08-14T09:40:00.180Z,61.45
2016-08-14T09:40:42.884Z,61.44
2016-08-14T09:41:42.927Z,61.40
2016-08-14T09:42:33.495Z,61.45
2016-08-14T09:43:37.905Z,61.41
2016-08-14T09:44:50.221Z,61.39
2016-08-14T09:45:42.315Z,61.44
2016-08-14T09:46:44.008Z,61.41
2016-08-14T09:47:27.057Z,61.43
2016-08-14T09:48:13.838Z,61.43
2016-08-14T09:49:44.896Z,61.37
2016-08-14T09:50:41.116Z,61.37
2016-08-14T09:51:44.664Z,61.37
2016-08-14T09:52:43.240Z,61.37
2016-08-14T09:53:38.162Z,61.38
2016-08-14T09:54:45.399Z,61.37
2016-08-14T09:55:50.157Z,61.37
2016-08-14T09:56:43.884Z,61.41
2016-08-14T09:57:48.371Z,61.39
2016-08-14T09:58:54.460Z,61.42
2016-08-14T09:59:15.879Z,61.42
2016-08-14T10:00:33.755Z,61.42
2016-08-14T10:01:41.141Z,61.41
2016-08-14T10:02:42.450Z,61.40
2016-08-14T10:03:38.765Z,61.41
2016-08-14T10:04:39.989Z,61.42
2016-08-14T10:05:42.774Z,61.40
2016-08-14T10:06:40.870Z,61.42
2016-08-14T10:07:27.333Z,61.44
2016-08-14T10:08:31.516Z,61.40
2016-08-14T10:09:38.049Z,61.39
2016-08-14T10:10:46.227Z,61.36
2016-08-14T10:11:40.701Z,61.42
2016-08-14T10:12:38.956Z,61.41
2016-08-14T10:13:13.903Z,61.42
2016-08-14T10:14:38.513Z,61.42
2016-08-14T10:15:27.618Z,61.39
2016-08-14T10:16:41.339Z,61.40
2016-08-14T10:17:27.924Z,61.40
2016-08-14T10:18:43.306Z,61.40
2016-08-14T10:19:44.008Z,61.41
2016-08-14T10:20:43.720Z,61.37
2016-08-14T10:21:37.432Z,61.39
2016-08-14T10:22:43.959Z,61.39
2016-08-14T10:23:14.077Z,61.40
2016-08-14T10:24:36.861Z,61.34
2016-08-14T10:25:48.604Z,61.37
2016-08-14T10:26:39.372Z,61.39
2016-08-14T10:27:39.393Z,61.22
2016-08-14T10:28:45.139Z,60.32
2016-08-14T10:29:37.678Z,60.21
2016-08-14T10:30:43.346Z,60.08
2016-08-14T10:31:43.303Z,60.02
2016-08-14T10:32:50.232Z,60.03
2016-08-14T10:33:38.611Z,60.89
2016-08-14T10:34:46.224Z,61.13
2016-08-14T10:35:42.698Z,61.20
2016-08-14T10:36:54.219Z,61.24
2016-08-14T10:37:37.414Z,61.25
2016-08-14T10:38:44.708Z,61.30
2016-08-14T10:39:33.287Z,61.28
2016-08-14T10:40:37.275Z,61.28
2016-08-14T10:41:44.209Z,61.31
2016-08-14T10:42:32.490Z,61.31
2016-08-14T10:43:36.142Z,61.30
2016-08-14T10:44:50.399Z,61.28
2016-08-14T10:45:32.616Z,61.29
2016-08-14T10:46:42.771Z,61.32
2016-08-14T10:47:42.788Z,61.31
2016-08-14T10:48:48.279Z,61.28
2016-08-14T10:49:34.349Z,61.29
2016-08-14T10:50:44.305Z,61.27
2016-08-14T10:52:54.510Z,61.30
2016-08-14T10:54:44.050Z,61.30
2016-08-14T10:55:44.542Z,61.30
2016-08-14T10:56:40.743Z,61.29
2016-08-14T10:58:00.195Z,61.25
2016-08-14T10:58:49.293Z,61.27
2016-08-14T10:59:50.322Z,61.26
2016-08-14T11:00:43.814Z,61.29
2016-08-14T11:01:42.806Z,61.27
2016-08-14T11:02:38.508Z,61.27
2016-08-14T11:03:33.417Z,61.27
2016-08-14T11:04:38.587Z,61.30
2016-08-14T11:05:48.331Z,60.25
2016-08-14T11:06:51.291Z,60.38
2016-08-14T11:07:49.627Z,61.02
2016-08-14T11:08:44.491Z,61.18
2016-08-14T11:09:43.132Z,61.28
2016-08-14T11:10:37.718Z,61.12
2016-08-14T11:11:37.878Z,60.31
2016-08-14T11:12:14.134Z,60.14
2016-08-14T11:13:38.634Z,60.29
2016-08-14T11:14:53.880Z,60.96
2016-08-14T11:15:50.391Z,61.13
2016-08-14T11:16:45.136Z,61.19
2016-08-14T11:17:44.921Z,61.27
2016-08-14T11:18:44.533Z,61.27
2016-08-14T11:19:43.570Z,61.31
2016-08-14T11:20:48.191Z,61.28
2016-08-14T11:21:37.975Z,61.26
2016-08-14T11:22:39.055Z,61.27
2016-08-14T11:23:56.937Z,61.29
2016-08-14T11:24:42.690Z,61.29
2016-08-14T11:25:49.317Z,61.25
2016-08-14T11:26:45.910Z,61.20
2016-08-14T11:27:43.922Z,61.23
2016-08-14T11:28:41.308Z,61.19
2016-08-14T11:29:40.355Z,61.22
2016-08-14T11:30:42.514Z,61.22
2016-08-14T11:31:38.070Z,61.24
2016-08-14T11:32:50.179Z,61.24
2016-08-14T11:33:37.991Z,61.26
2016-08-14T11:34:36.299Z,61.24
2016-08-14T11:35:39.711Z,61.20
2016-08-14T11:36:42.270Z,61.21
2016-08-14T11:37:42.643Z,61.21
2016-08-14T11:38:42.643Z,61.17
2016-08-14T11:39:46.572Z,61.13
2016-08-14T11:40:50.764Z,61.15
2016-08-14T11:41:43.667Z,61.17
2016-08-14T11:42:26.810Z,61.14
2016-08-14T11:43:33.374Z,61.16
2016-08-14T11:44:43.212Z,61.20
2016-08-14T11:45:37.026Z,61.18
2016-08-14T11:46:45.108Z,60.97
2016-08-14T11:47:47.953Z,60.39
2016-08-14T11:48:42.921Z,61.03
2016-08-14T11:49:37.358Z,61.10
2016-08-14T11:50:49.343Z,61.16
2016-08-14T11:51:27.568Z,61.15
2016-08-14T11:52:45.137Z,61.21
2016-08-14T11:53:37.828Z,61.05
2016-08-14T11:54:48.462Z,60.27
2016-08-14T11:55:48.111Z,59.99
2016-08-14T11:56:48.478Z,59.88
2016-08-14T11:57:16.177Z,59.77
2016-08-14T11:58:39.201Z,59.78
2016-08-14T11:59:48.714Z,59.93
2016-08-14T12:00:48.681Z,60.66
2016-08-14T12:01:50.367Z,60.83
2016-08-14T12:02:55.484Z,60.97
2016-08-14T12:03:44.689Z,61.02
2016-08-14T12:04:44.612Z,61.00
2016-08-14T12:05:31.202Z,61.00
2016-08-14T12:06:32.589Z,61.04
2016-08-14T12:07:19.808Z,61.04
2016-08-14T12:08:38.999Z,61.06
2016-08-14T12:09:49.810Z,61.05
2016-08-14T12:10:44.428Z,60.84
2016-08-14T12:11:36.359Z,60.05
2016-08-14T12:12:48.655Z,59.88
2016-08-14T12:13:44.489Z,59.80
2016-08-14T12:14:39.158Z,59.73
2016-08-14T12:15:43.293Z,59.78
2016-08-14T12:16:55.247Z,60.59
2016-08-14T12:17:44.357Z,60.79
2016-08-14T12:18:44.753Z,60.92
2016-08-14T12:19:36.527Z,60.89
2016-08-14T12:20:57.746Z,60.97
2016-08-14T12:21:44.121Z,60.82
2016-08-14T12:22:45.658Z,60.01
2016-08-14T12:23:48.189Z,59.83
2016-08-14T12:24:48.198Z,60.65
2016-08-14T12:25:44.513Z,60.85
2016-08-14T12:26:46.753Z,60.90
2016-08-14T12:27:43.777Z,60.94
2016-08-14T12:28:17.510Z,60.91
2016-08-14T12:29:47.332Z,60.95
2016-08-14T12:30:44.047Z,60.98
2016-08-14T12:31:44.550Z,61.01
2016-08-14T12:32:54.746Z,61.03
2016-08-14T12:33:38.458Z,60.84
2016-08-14T12:34:45.977Z,59.98
2016-08-14T12:35:42.265Z,59.79
2016-08-14T12:36:43.933Z,60.68
2016-08-14T12:37:34.335Z,60.81
2016-08-14T12:38:36.653Z,60.91
2016-08-14T12:39:47.917Z,60.91
2016-08-14T12:40:47.339Z,60.93
2016-08-14T12:41:38.618Z,60.97
2016-08-14T12:42:38.527Z,60.97
2016-08-14T12:43:39.283Z,60.98
2016-08-14T12:44:53.398Z,60.96
2016-08-14T12:45:41.636Z,61.00
2016-08-14T12:46:45.030Z,60.97
2016-08-14T12:47:41.689Z,61.00
2016-08-14T12:48:43.387Z,60.95
2016-08-14T12:49:38.494Z,60.02
2016-08-14T12:50:38.224Z,59.87
2016-08-14T12:51:13.965Z,60.66
2016-08-14T12:52:58.994Z,60.84
2016-08-14T12:53:32.330Z,60.91
2016-08-14T12:54:38.420Z,60.92
2016-08-14T12:55:52.819Z,60.94
2016-08-14T12:56:48.677Z,60.95
2016-08-14T12:57:55.220Z,60.97
2016-08-14T12:58:39.992Z,60.94